createdAt,value
2023-07-23T00:01:35.027Z,2.50
2023-07-23T00:04:03.211Z,2.30
2023-07-23T00:06:31.217Z,2.40
2023-07-23T00:08:59.219Z,2.20
2023-07-23T00:11:27.459Z,2.40
2023-07-23T00:13:57.175Z,2.30
2023-07-23T00:16:25.333Z,2.20
2023-07-23T00:18:53.301Z,1.90
2023-07-23T00:21:22.129Z,2.50
2023-07-23T00:23:50.538Z,2.30
2023-07-23T00:26:18.505Z,2.50
2023-07-23T00:28:46.483Z,1.80
2023-07-23T00:31:14.658Z,1.90
2023-07-23T00:33:42.680Z,2.50
2023-07-23T00:36:10.700Z,2.10
2023-07-23T00:38:38.677Z,2.40
2023-07-23T00:41:06.734Z,2.60
2023-07-23T00:43:34.857Z,2.20
2023-07-23T00:46:02.899Z,2.00
2023-07-23T00:48:30.918Z,2.80
2023-07-23T00:50:59.138Z,2.50
2023-07-23T00:53:28.209Z,2.70
2023-07-23T00:55:56.941Z,2.60
2023-07-23T00:58:25.356Z,2.60
2023-07-23T01:00:53.559Z,3.00
2023-07-23T01:03:22.137Z,2.60
2023-07-23T01:05:51.938Z,2.50
2023-07-23T01:08:21.941Z,2.30
2023-07-23T01:10:50.025Z,2.80
2023-07-23T01:13:18.466Z,3.00
2023-07-23T01:15:47.179Z,2.60
2023-07-23T01:18:18.439Z,2.40
2023-07-23T01:20:46.592Z,3.10
2023-07-23T01:23:14.542Z,2.80
2023-07-23T01:25:42.567Z,2.50
2023-07-23T01:28:10.775Z,2.70
2023-07-23T01:30:38.674Z,2.80
2023-07-23T01:33:07.082Z,3.50
2023-07-23T01:35:35.321Z,2.40
2023-07-23T01:51:04.516Z,2.50
2023-07-23T01:53:32.774Z,3.00
2023-07-23T01:56:00.830Z,3.40
2023-07-23T01:58:28.887Z,2.70
2023-07-23T02:01:01.918Z,2.80
2023-07-23T02:03:32.359Z,3.10
2023-07-23T02:06:02.004Z,2.90
2023-07-23T02:08:30.314Z,3.10
2023-07-23T02:11:02.134Z,3.00
2023-07-23T02:13:30.908Z,3.00
2023-07-23T02:15:59.012Z,2.90
2023-07-23T02:18:27.318Z,2.80
2023-07-23T02:20:55.283Z,2.90
2023-07-23T02:23:23.441Z,2.60
2023-07-23T02:25:51.744Z,3.20
2023-07-23T02:28:19.739Z,3.40
2023-07-23T02:30:55.776Z,3.50
2023-07-23T02:33:23.915Z,3.40
2023-07-23T02:35:51.932Z,2.90
2023-07-23T02:38:19.999Z,2.60
2023-07-23T02:40:47.971Z,2.90
2023-07-23T02:43:15.936Z,3.00
2023-07-23T02:45:44.153Z,3.00
2023-07-23T02:48:12.272Z,3.60
2023-07-23T02:50:41.277Z,3.50
2023-07-23T02:53:09.448Z,3.80
2023-07-23T02:55:37.578Z,3.20
2023-07-23T02:58:05.644Z,3.50
2023-07-23T03:00:34.353Z,3.70
2023-07-23T03:03:03.115Z,3.70
2023-07-23T03:05:31.327Z,3.40
2023-07-23T03:07:59.352Z,3.40
2023-07-23T03:10:27.352Z,4.30
2023-07-23T03:12:55.297Z,3.80
2023-07-23T03:15:24.730Z,4.60
2023-07-23T03:17:52.817Z,4.10
2023-07-23T03:20:22.003Z,4.90
2023-07-23T03:22:49.965Z,4.70
2023-07-23T03:25:18.093Z,4.10
2023-07-23T03:27:46.046Z,4.80
2023-07-23T03:30:14.545Z,4.70
2023-07-23T03:32:42.799Z,4.40
2023-07-23T03:35:11.009Z,4.70
2023-07-23T03:37:38.964Z,4.40
2023-07-23T03:40:07.807Z,4.00
2023-07-23T03:42:35.766Z,4.30
2023-07-23T03:45:05.425Z,5.00
2023-07-23T03:47:35.513Z,4.90
2023-07-23T03:50:03.667Z,5.00
2023-07-23T03:52:31.656Z,4.30
2023-07-23T03:54:59.628Z,4.70
2023-07-23T03:57:27.654Z,5.70
2023-07-23T03:59:55.688Z,5.00
2023-07-23T04:02:23.729Z,5.70
2023-07-23T04:04:51.782Z,5.20
2023-07-23T04:07:19.725Z,4.70
2023-07-23T04:09:48.052Z,5.30
2023-07-23T04:12:16.184Z,4.90
2023-07-23T04:14:45.076Z,5.70
2023-07-23T04:17:17.024Z,5.30
2023-07-23T04:19:46.104Z,5.40
2023-07-23T04:22:14.095Z,6.00
2023-07-23T04:24:42.206Z,4.90
2023-07-23T04:27:10.145Z,5.30
2023-07-23T04:29:38.657Z,5.30
2023-07-23T04:32:06.772Z,5.50
2023-07-23T04:34:34.860Z,5.40
2023-07-23T04:37:02.980Z,5.90
2023-07-23T04:39:30.959Z,4.80
2023-07-23T04:41:59.003Z,5.40
2023-07-23T04:44:26.920Z,5.20
2023-07-23T04:46:54.946Z,6.50
2023-07-23T04:49:23.069Z,4.90
2023-07-23T04:51:51.071Z,5.10
2023-07-23T04:54:19.032Z,5.40
2023-07-23T04:56:46.958Z,5.10
2023-07-23T04:59:14.923Z,5.10
2023-07-23T05:01:42.892Z,4.60
2023-07-23T05:04:11.491Z,4.50
2023-07-23T05:06:39.462Z,4.40
2023-07-23T05:09:07.914Z,4.40
2023-07-23T05:11:35.986Z,4.50
2023-07-23T05:14:03.923Z,4.20
2023-07-23T05:16:31.945Z,4.30
2023-07-23T05:18:59.913Z,4.20
2023-07-23T05:21:28.523Z,3.80
2023-07-23T05:23:56.753Z,3.50
2023-07-23T05:26:24.808Z,3.90
2023-07-23T05:28:52.922Z,3.70
2023-07-23T05:31:20.996Z,4.10
2023-07-23T05:33:48.944Z,4.00
2023-07-23T05:36:16.907Z,4.00
2023-07-23T05:38:44.968Z,3.40
2023-07-23T05:41:12.968Z,3.20
2023-07-23T05:43:40.954Z,3.70
2023-07-23T05:46:09.655Z,3.60
2023-07-23T05:48:37.611Z,3.30
2023-07-23T05:51:05.590Z,2.70
2023-07-23T05:53:33.524Z,3.60
2023-07-23T05:56:01.804Z,2.90
2023-07-23T05:58:29.942Z,3.00
2023-07-23T06:00:58.545Z,3.00
2023-07-23T06:03:31.046Z,2.80
2023-07-23T06:06:05.003Z,3.00
2023-07-23T06:08:33.088Z,3.00
2023-07-23T06:11:01.037Z,3.10
2023-07-23T06:13:29.033Z,3.30
2023-07-23T06:15:57.033Z,2.80
2023-07-23T06:18:25.015Z,3.50
2023-07-23T06:20:52.952Z,3.30
2023-07-23T06:23:21.121Z,3.50
2023-07-23T06:25:55.989Z,2.90
2023-07-23T06:28:24.485Z,4.00
2023-07-23T06:30:56.395Z,3.20
2023-07-23T06:33:24.441Z,3.00
2023-07-23T06:35:52.507Z,3.60
2023-07-23T06:38:20.718Z,3.30
2023-07-23T06:40:50.332Z,3.10
2023-07-23T06:43:20.510Z,3.40
2023-07-23T06:45:49.806Z,3.10
2023-07-23T06:48:20.506Z,2.90
2023-07-23T06:50:48.752Z,3.10
2023-07-23T06:53:17.125Z,2.90
2023-07-23T06:56:03.142Z,3.00
2023-07-23T06:58:34.527Z,3.20
2023-07-23T07:01:03.254Z,3.00
2023-07-23T07:03:31.434Z,3.40
2023-07-23T07:06:00.982Z,3.10
2023-07-23T07:08:29.974Z,2.60
2023-07-23T07:11:03.258Z,2.80
2023-07-23T07:13:32.615Z,3.10
2023-07-23T07:16:00.770Z,3.20
2023-07-23T07:18:29.902Z,3.00
2023-07-23T07:20:59.796Z,3.60
2023-07-23T07:23:29.033Z,2.80
2023-07-23T07:25:58.472Z,3.70
2023-07-23T07:28:26.773Z,3.70
2023-07-23T07:30:59.732Z,3.10
2023-07-23T07:33:29.167Z,2.90
2023-07-23T07:35:59.295Z,2.90
2023-07-23T07:38:28.422Z,3.40
2023-07-23T07:40:59.395Z,2.60
2023-07-23T07:43:28.004Z,3.30
2023-07-23T07:46:01.293Z,2.80
2023-07-23T07:48:31.807Z,2.90
2023-07-23T07:51:04.646Z,2.60
2023-07-23T07:53:33.999Z,2.60
2023-07-23T07:56:02.564Z,2.50
2023-07-23T07:58:31.596Z,2.50
2023-07-23T08:01:01.694Z,2.80
2023-07-23T08:03:31.616Z,2.40
2023-07-23T08:06:01.300Z,3.00
2023-07-23T08:08:31.514Z,2.80
2023-07-23T08:11:02.179Z,2.70
2023-07-23T08:13:30.719Z,2.90
2023-07-23T08:15:58.961Z,2.50
2023-07-23T08:18:27.256Z,2.40
2023-07-23T08:20:58.547Z,2.90
2023-07-23T08:23:29.653Z,2.70
2023-07-23T08:26:00.488Z,2.70
2023-07-23T08:28:30.756Z,2.50
2023-07-23T08:31:01.576Z,2.30
2023-07-23T08:33:32.574Z,2.70
2023-07-23T08:36:02.186Z,2.80
2023-07-23T08:38:30.560Z,2.70
2023-07-23T08:41:02.369Z,2.70
2023-07-23T08:43:58.706Z,2.90
2023-07-23T08:46:28.276Z,2.70
2023-07-23T08:49:05.647Z,2.80
2023-07-23T08:51:44.481Z,3.30
2023-07-23T08:54:14.929Z,3.10
2023-07-23T08:56:45.403Z,2.90
2023-07-23T08:59:14.386Z,2.80
2023-07-23T09:01:43.574Z,3.00
2023-07-23T09:04:13.887Z,2.60
2023-07-23T09:06:45.248Z,2.20
2023-07-23T09:09:15.079Z,2.30
2023-07-23T09:11:43.842Z,2.20
2023-07-23T09:14:14.759Z,2.60
2023-07-23T09:16:45.360Z,2.70
2023-07-23T09:19:28.544Z,2.50
2023-07-23T09:21:59.042Z,2.30
2023-07-23T09:24:34.771Z,2.20
2023-07-23T09:27:04.167Z,2.60
2023-07-23T09:29:37.272Z,2.10
2023-07-23T09:32:16.940Z,2.20
2023-07-23T09:34:50.693Z,2.40
2023-07-23T09:37:19.142Z,2.20
2023-07-23T09:39:47.371Z,2.20
2023-07-23T09:42:22.116Z,1.90
2023-07-23T09:44:50.753Z,2.70
2023-07-23T09:47:26.020Z,2.50
2023-07-23T09:52:35.927Z,2.20
2023-07-23T09:55:04.525Z,2.20
2023-07-23T09:57:35.321Z,2.30
2023-07-23T10:00:04.742Z,2.30
2023-07-23T10:02:42.694Z,2.20
2023-07-23T10:05:17.004Z,1.90
2023-07-23T10:07:48.409Z,2.10
2023-07-23T10:10:17.483Z,1.90
2023-07-23T10:12:45.699Z,1.90
2023-07-23T10:15:13.973Z,2.00
2023-07-23T10:17:47.677Z,2.30
2023-07-23T10:20:18.187Z,1.50
2023-07-23T10:22:46.930Z,1.70
2023-07-23T10:25:35.769Z,1.70
2023-07-23T10:28:09.561Z,1.90
2023-07-23T10:30:38.666Z,1.50
2023-07-23T10:33:10.327Z,2.00
2023-07-23T10:35:53.980Z,1.90
2023-07-23T10:38:23.088Z,1.70
2023-07-23T10:40:51.548Z,1.70
2023-07-23T10:43:19.599Z,2.00
2023-07-23T10:46:05.202Z,1.90
2023-07-23T10:48:51.204Z,1.70
2023-07-23T10:51:26.869Z,1.70
2023-07-23T10:54:06.305Z,1.60
2023-07-23T10:56:36.440Z,2.10
2023-07-23T10:59:04.575Z,1.90
2023-07-23T11:01:39.746Z,1.70
2023-07-23T11:04:14.045Z,1.90
2023-07-23T11:07:00.038Z,2.00
2023-07-23T11:09:33.755Z,1.80
2023-07-23T11:12:06.588Z,1.80
2023-07-23T11:14:51.455Z,2.00
2023-07-23T11:17:24.941Z,2.10
2023-07-23T11:19:56.223Z,1.80
2023-07-23T11:22:24.245Z,1.80
2023-07-23T11:24:52.408Z,1.90
2023-07-23T11:27:21.789Z,1.80
2023-07-23T11:29:49.940Z,1.90
2023-07-23T11:32:18.136Z,2.10
2023-07-23T11:34:46.209Z,2.00
2023-07-23T11:37:16.148Z,2.10
2023-07-23T11:39:53.130Z,2.00
2023-07-23T11:42:22.008Z,2.10
2023-07-23T11:45:07.856Z,2.40
2023-07-23T11:50:19.137Z,2.00
2023-07-23T11:52:48.919Z,2.50
2023-07-23T11:55:24.271Z,2.20
2023-07-23T11:57:58.878Z,1.80
2023-07-23T12:00:59.318Z,2.50
2023-07-23T12:03:45.673Z,2.40
2023-07-23T12:06:15.761Z,2.50
2023-07-23T12:08:47.471Z,3.20
2023-07-23T12:11:16.779Z,3.20
2023-07-23T12:13:53.756Z,3.10
2023-07-23T12:16:48.414Z,2.30
2023-07-23T12:19:21.307Z,2.00
2023-07-23T12:21:58.986Z,1.70
2023-07-23T12:24:33.944Z,2.50
2023-07-23T12:27:05.628Z,1.90
2023-07-23T12:29:43.933Z,2.60
2023-07-23T12:32:13.728Z,2.10
2023-07-23T12:34:45.139Z,2.10
2023-07-23T12:37:16.070Z,2.40
2023-07-23T12:39:47.570Z,1.80
2023-07-23T12:42:15.701Z,1.90
2023-07-23T12:44:43.836Z,2.50
2023-07-23T12:47:12.763Z,2.10
2023-07-23T12:49:41.189Z,2.20
2023-07-23T12:52:09.271Z,2.40
2023-07-23T12:54:37.274Z,2.50
2023-07-23T12:57:10.302Z,2.50
2023-07-23T12:59:38.820Z,3.10
2023-07-23T13:02:09.699Z,2.50
2023-07-23T13:04:38.931Z,2.80
2023-07-23T13:07:07.147Z,2.50
2023-07-23T13:09:35.160Z,2.70
2023-07-23T13:12:03.856Z,2.60
2023-07-23T13:14:31.915Z,2.60
2023-07-23T13:17:00.390Z,2.40
2023-07-23T13:19:28.465Z,2.50
2023-07-23T13:21:56.641Z,1.90
2023-07-23T13:24:24.678Z,2.30
2023-07-23T13:26:52.665Z,2.30
2023-07-23T13:29:20.690Z,2.50
2023-07-23T13:31:48.808Z,2.20
2023-07-23T13:34:16.804Z,2.70
2023-07-23T13:36:45.022Z,2.70
2023-07-23T13:39:13.181Z,2.30
2023-07-23T13:41:41.209Z,2.70
2023-07-23T13:44:09.232Z,2.50
2023-07-23T13:46:37.268Z,2.10
2023-07-23T13:49:05.415Z,2.50
2023-07-23T13:51:33.420Z,2.70
2023-07-23T13:54:01.468Z,2.40
2023-07-23T13:56:29.737Z,2.40
2023-07-23T13:58:58.017Z,3.00
2023-07-23T14:01:26.553Z,2.10
2023-07-23T14:03:54.771Z,2.90
2023-07-23T14:06:23.420Z,3.00
2023-07-23T14:08:51.477Z,2.70
2023-07-23T14:11:19.515Z,2.40
2023-07-23T14:13:47.516Z,2.60
2023-07-23T14:16:15.591Z,2.80
2023-07-23T14:18:43.623Z,2.80
2023-07-23T14:21:24.546Z,2.70
2023-07-23T14:23:58.334Z,3.00
2023-07-23T14:26:30.390Z,2.70
2023-07-23T14:29:03.237Z,2.70
2023-07-23T14:35:05.461Z,2.60
2023-07-23T14:38:03.582Z,3.90
2023-07-23T14:40:57.988Z,2.80
2023-07-23T14:43:37.639Z,2.70
2023-07-23T14:46:05.836Z,2.60
2023-07-23T14:48:33.813Z,2.70
2023-07-23T14:51:01.927Z,2.40
2023-07-23T14:53:29.994Z,2.80
2023-07-23T14:55:58.120Z,2.60
2023-07-23T14:58:27.242Z,2.60
2023-07-23T15:00:55.922Z,1.90
2023-07-23T15:03:24.243Z,2.10
2023-07-23T15:05:52.530Z,2.20
2023-07-23T15:08:20.560Z,2.50
2023-07-23T15:10:48.712Z,2.00
2023-07-23T15:13:16.927Z,2.40
2023-07-23T15:15:45.553Z,2.20
2023-07-23T15:18:14.045Z,2.50
2023-07-23T15:20:43.081Z,2.30
2023-07-23T15:23:19.159Z,2.50
2023-07-23T15:25:47.516Z,2.50
2023-07-23T15:28:18.647Z,2.20
2023-07-23T15:30:46.673Z,2.60
2023-07-23T15:33:14.963Z,2.30
2023-07-23T15:35:42.972Z,2.60
2023-07-23T15:38:11.229Z,2.30
2023-07-23T15:40:39.182Z,1.60
2023-07-23T15:43:07.221Z,2.20
2023-07-23T15:45:35.298Z,2.40
2023-07-23T15:48:03.983Z,2.30
2023-07-23T15:50:32.286Z,2.00
2023-07-23T15:53:00.676Z,2.40
2023-07-23T15:55:28.750Z,2.50
2023-07-23T15:57:56.690Z,2.60
2023-07-23T16:00:24.690Z,2.40
2023-07-23T16:02:52.796Z,2.70
2023-07-23T16:05:21.010Z,2.60
2023-07-23T16:07:49.596Z,1.90
2023-07-23T16:10:17.661Z,2.50
2023-07-23T16:12:45.768Z,2.00
2023-07-23T16:15:13.911Z,2.30
2023-07-23T16:17:42.189Z,2.50
2023-07-23T16:20:10.384Z,2.40
2023-07-23T16:22:38.577Z,2.70
2023-07-23T16:25:06.762Z,2.80
2023-07-23T16:27:35.140Z,2.80
2023-07-23T16:30:03.390Z,2.50
2023-07-23T16:32:31.836Z,2.70
2023-07-23T16:35:00.533Z,2.40
2023-07-23T16:37:31.321Z,2.30
2023-07-23T16:40:00.102Z,2.70
2023-07-23T16:42:30.737Z,2.40
2023-07-23T16:45:02.824Z,2.30
2023-07-23T16:47:30.831Z,2.40
2023-07-23T16:49:58.841Z,2.60
2023-07-23T16:52:27.451Z,2.50
2023-07-23T16:54:55.876Z,2.60
2023-07-23T16:57:24.698Z,2.30
2023-07-23T16:59:52.741Z,2.60
2023-07-23T17:02:20.862Z,2.80
2023-07-23T17:04:48.902Z,2.40
2023-07-23T17:07:17.139Z,2.50
2023-07-23T17:09:45.206Z,2.70
2023-07-23T17:12:13.408Z,2.60
2023-07-23T17:14:41.426Z,2.40
2023-07-23T17:17:09.897Z,3.10
2023-07-23T17:19:38.208Z,2.70
2023-07-23T17:22:07.219Z,2.80
2023-07-23T17:24:35.516Z,2.40
2023-07-23T17:27:03.833Z,2.80
2023-07-23T17:29:34.077Z,3.10
2023-07-23T17:32:02.124Z,2.40
2023-07-23T17:34:30.128Z,3.00
2023-07-23T17:36:58.341Z,2.90
2023-07-23T17:39:28.364Z,3.00
2023-07-23T17:41:56.716Z,2.70
2023-07-23T17:44:24.763Z,2.50
2023-07-23T17:46:52.794Z,3.20
2023-07-23T17:49:20.927Z,2.70
2023-07-23T17:51:49.099Z,2.90
2023-07-23T17:54:17.117Z,3.20
2023-07-23T17:56:45.198Z,2.90
2023-07-23T17:59:14.658Z,2.40
2023-07-23T18:01:47.541Z,2.70
2023-07-23T18:04:19.360Z,3.20
2023-07-23T18:06:47.904Z,3.00
2023-07-23T18:09:17.896Z,3.10
2023-07-23T18:11:46.190Z,3.10
2023-07-23T18:14:14.326Z,3.10
2023-07-23T18:16:44.489Z,3.10
2023-07-23T18:19:13.222Z,2.80
2023-07-23T18:21:41.824Z,2.90
2023-07-23T18:24:11.064Z,2.50
2023-07-23T18:26:39.905Z,3.30
2023-07-23T18:29:12.182Z,3.40
2023-07-23T18:31:41.054Z,3.10
2023-07-23T18:34:09.736Z,2.90
2023-07-23T18:36:40.826Z,2.90
2023-07-23T18:39:09.558Z,2.60
2023-07-23T18:41:38.223Z,2.90
2023-07-23T18:44:07.985Z,2.80
2023-07-23T18:46:36.811Z,3.10
2023-07-23T18:49:05.712Z,3.30
2023-07-23T18:51:34.774Z,3.40
2023-07-23T18:54:04.281Z,3.20
2023-07-23T18:56:33.356Z,2.80
2023-07-23T18:59:02.197Z,3.00
2023-07-23T19:01:31.351Z,3.30
2023-07-23T19:07:06.738Z,2.80
2023-07-23T19:09:36.356Z,2.80
2023-07-23T19:12:05.557Z,3.50
2023-07-23T19:14:34.581Z,2.60
2023-07-23T19:17:03.512Z,2.60
2023-07-23T19:19:33.414Z,3.30
2023-07-23T19:22:04.004Z,2.80
2023-07-23T19:24:32.401Z,2.80
2023-07-23T19:27:00.836Z,3.40
2023-07-23T19:29:31.976Z,2.90
2023-07-23T19:32:01.033Z,2.80
2023-07-23T19:34:30.258Z,2.50
2023-07-23T19:36:59.388Z,2.70
2023-07-23T19:39:28.698Z,3.40
2023-07-23T19:42:00.657Z,3.10
2023-07-23T19:44:31.292Z,3.00
2023-07-23T19:46:59.983Z,3.70
2023-07-23T19:49:32.728Z,3.00
2023-07-23T19:52:05.016Z,2.90
2023-07-23T19:54:34.217Z,2.90
2023-07-23T19:57:02.908Z,2.90
2023-07-23T19:59:31.843Z,3.40
2023-07-23T20:02:00.139Z,3.00
2023-07-23T20:04:29.014Z,3.40
2023-07-23T20:06:57.243Z,2.70
2023-07-23T20:09:25.604Z,3.30
2023-07-23T20:11:57.266Z,3.30
2023-07-23T20:14:26.483Z,3.20
2023-07-23T20:16:55.065Z,3.30
2023-07-23T20:19:23.276Z,3.00
2023-07-23T20:21:52.857Z,3.00
2023-07-23T20:24:21.847Z,3.00
2023-07-23T20:26:50.422Z,2.70
2023-07-23T20:29:19.944Z,3.30
2023-07-23T20:35:17.436Z,3.60
2023-07-23T20:37:45.815Z,3.30
2023-07-23T20:40:14.740Z,3.70
2023-07-23T20:42:43.078Z,3.10
2023-07-23T20:45:11.267Z,3.40
2023-07-23T20:47:39.422Z,3.70
2023-07-23T20:50:08.431Z,3.20
2023-07-23T20:52:36.396Z,3.10
2023-07-23T20:55:04.732Z,3.20
2023-07-23T20:57:32.843Z,3.10
2023-07-23T21:00:01.421Z,3.30
2023-07-23T21:02:29.514Z,2.80
2023-07-23T21:04:57.542Z,3.30
2023-07-23T21:07:25.656Z,3.10
2023-07-23T21:09:53.667Z,3.40
2023-07-23T21:12:21.692Z,2.80
2023-07-23T21:14:50.288Z,3.00
2023-07-23T21:17:19.485Z,3.50
2023-07-23T21:20:00.666Z,3.40
2023-07-23T21:22:30.759Z,3.80
2023-07-23T21:24:59.641Z,3.60
2023-07-23T21:27:27.635Z,3.80
2023-07-23T21:29:55.568Z,2.90
2023-07-23T21:32:23.526Z,3.50
2023-07-23T21:34:51.463Z,3.20
2023-07-23T21:37:19.479Z,3.00
2023-07-23T21:39:47.540Z,2.90
2023-07-23T21:42:24.013Z,3.00
2023-07-23T21:44:52.024Z,3.10
2023-07-23T21:47:20.064Z,3.90
2023-07-23T21:49:48.042Z,3.30
2023-07-23T21:52:19.031Z,3.10
2023-07-23T21:54:47.150Z,3.00
2023-07-23T21:57:16.210Z,3.20
2023-07-23T21:59:48.895Z,3.30
2023-07-23T22:02:16.942Z,2.80
2023-07-23T22:04:45.194Z,3.10
2023-07-23T22:07:13.434Z,3.30
2023-07-23T22:09:41.428Z,3.30
2023-07-23T22:12:13.284Z,3.20
2023-07-23T22:14:42.223Z,3.20
2023-07-23T22:17:10.226Z,3.40
2023-07-23T22:19:38.187Z,3.10
2023-07-23T22:22:06.194Z,3.20
2023-07-23T22:24:34.605Z,3.40
2023-07-23T22:27:02.706Z,3.00
2023-07-23T22:29:30.742Z,3.60
2023-07-23T22:31:58.817Z,3.00
2023-07-23T22:34:26.781Z,3.10
2023-07-23T22:36:54.739Z,3.30
2023-07-23T22:39:22.777Z,3.00
2023-07-23T22:41:50.884Z,3.00
2023-07-23T22:44:19.125Z,3.30
2023-07-23T22:46:47.231Z,3.10
2023-07-23T22:49:15.296Z,3.00
2023-07-23T22:51:43.361Z,3.30
2023-07-23T22:54:11.604Z,3.20
2023-07-23T22:56:39.756Z,3.10
2023-07-23T22:59:07.729Z,3.40
2023-07-23T23:01:36.124Z,3.10
2023-07-23T23:04:04.256Z,3.00
2023-07-23T23:06:34.340Z,3.20
2023-07-23T23:09:02.530Z,3.30
2023-07-23T23:11:30.554Z,3.00
2023-07-23T23:13:58.588Z,2.70
2023-07-23T23:16:26.561Z,3.10
2023-07-23T23:18:55.278Z,3.20
2023-07-23T23:21:23.282Z,3.10
2023-07-23T23:23:51.446Z,3.60
2023-07-23T23:26:19.367Z,2.80
2023-07-23T23:28:47.572Z,3.10
2023-07-23T23:31:15.768Z,3.40
2023-07-23T23:33:43.822Z,2.80
2023-07-23T23:36:11.757Z,3.20
2023-07-23T23:38:39.721Z,3.50
2023-07-23T23:41:07.659Z,2.60
2023-07-23T23:43:35.712Z,2.90
2023-07-23T23:46:03.710Z,2.80
2023-07-23T23:48:31.705Z,2.80
2023-07-23T23:51:00.827Z,3.20
2023-07-23T23:53:29.335Z,2.50
2023-07-23T23:55:57.515Z,3.30
2023-07-23T23:58:25.470Z,3.20
